createdAt,value
2023-04-13T04:07:12.344Z,35.90
2023-04-13T04:12:14.701Z,39.50
2023-04-13T04:17:17.483Z,38.70
2023-04-13T04:22:19.782Z,40.50
2023-04-13T04:27:21.821Z,46.10
2023-04-13T04:32:25.103Z,41.20
2023-04-13T04:37:28.045Z,41.80
2023-04-13T04:42:42.904Z,37.10
2023-04-13T04:47:53.153Z,34.80
2023-04-13T04:52:57.943Z,32.90
2023-04-13T04:57:59.990Z,28.00
2023-04-13T05:03:02.841Z,25.70
2023-04-13T05:08:05.356Z,26.10
2023-04-13T05:13:11.873Z,25.30
2023-04-13T05:18:15.558Z,25.60
2023-04-13T05:23:17.615Z,27.00
2023-04-13T05:28:26.357Z,28.70
2023-04-13T05:33:29.428Z,29.10
2023-04-13T05:38:33.086Z,33.40
2023-04-13T05:43:35.133Z,32.50
2023-04-13T05:48:37.026Z,44.90
2023-04-13T05:53:41.809Z,32.30
2023-04-13T05:58:44.393Z,32.70
2023-04-13T06:04:05.955Z,31.00
2023-04-13T06:09:09.010Z,33.20
2023-04-13T06:14:10.650Z,34.90
2023-04-13T06:19:15.342Z,33.90
2023-04-13T06:24:17.629Z,26.30
2023-04-13T06:29:20.316Z,24.90
2023-04-13T06:34:31.366Z,25.40
2023-04-13T06:39:37.640Z,21.30
2023-04-13T06:44:48.007Z,21.20
2023-04-13T06:49:50.190Z,19.20
2023-04-13T06:54:52.084Z,21.20
2023-04-13T07:00:15.438Z,17.00
2023-04-13T07:10:39.195Z,14.90
2023-04-13T07:15:42.730Z,16.40
2023-04-13T07:20:45.573Z,15.10
2023-04-13T07:25:48.518Z,9.60
2023-04-13T07:30:54.865Z,6.80
2023-04-13T07:35:57.293Z,7.20
2023-04-13T07:41:00.923Z,7.70
2023-04-13T07:46:12.674Z,8.00
2023-04-13T07:51:19.569Z,9.80
2023-04-13T07:56:22.610Z,9.80
2023-04-13T08:01:26.372Z,10.10
2023-04-13T08:06:29.265Z,9.90
2023-04-13T08:11:31.206Z,9.70
2023-04-13T08:16:38.165Z,9.20
2023-04-13T08:21:42.757Z,9.90
2023-04-13T08:26:45.646Z,9.60
2023-04-13T08:31:48.153Z,11.20
2023-04-13T08:36:50.899Z,10.10
2023-04-13T08:41:53.140Z,8.50
2023-04-13T08:46:56.189Z,8.60
2023-04-13T08:52:05.636Z,8.60
2023-04-13T08:57:11.094Z,6.60
2023-04-13T09:02:14.567Z,7.60
2023-04-13T09:07:29.070Z,6.60
2023-04-13T09:12:35.199Z,6.10
2023-04-13T09:17:37.439Z,5.40
2023-04-13T09:22:39.634Z,4.60
2023-04-13T09:27:41.736Z,4.60
2023-04-13T09:32:43.489Z,4.20
2023-04-13T09:37:45.175Z,4.40
2023-04-13T09:43:06.815Z,4.10
2023-04-13T09:48:38.808Z,4.00
2023-04-13T09:53:47.234Z,4.30
2023-04-13T09:58:50.481Z,4.30
2023-04-13T10:03:52.745Z,4.00
2023-04-13T10:08:54.407Z,4.60
2023-04-13T10:13:59.008Z,4.60
2023-04-13T10:19:09.947Z,4.50
2023-04-13T10:24:13.219Z,4.50
2023-04-13T10:29:16.572Z,3.50
2023-04-13T10:34:29.071Z,3.60
2023-04-13T10:39:33.515Z,2.80
2023-04-13T10:44:45.291Z,3.10
2023-04-13T10:49:48.503Z,3.50
2023-04-13T10:54:50.819Z,2.90
2023-04-13T10:59:59.162Z,3.10
2023-04-13T11:05:02.438Z,3.70
2023-04-13T11:10:05.931Z,2.80
2023-04-13T11:15:08.498Z,3.20
2023-04-13T11:20:11.288Z,3.20
2023-04-13T11:25:13.177Z,3.80
2023-04-13T11:30:14.893Z,2.90
2023-04-13T11:35:18.333Z,4.60
2023-04-13T11:40:25.679Z,3.60
2023-04-13T11:45:31.045Z,4.10
2023-04-13T11:50:33.427Z,3.70
2023-04-13T11:55:50.120Z,3.80
2023-04-13T12:00:59.907Z,3.50
2023-04-13T12:06:05.861Z,3.50
2023-04-13T12:11:39.087Z,4.40
2023-04-13T12:21:40.068Z,7.00
2023-04-13T12:27:17.239Z,7.40
2023-04-13T12:32:07.526Z,8.30
2023-04-13T12:37:11.234Z,7.50
2023-04-13T12:42:13.336Z,5.80
2023-04-13T12:47:15.049Z,6.00
2023-04-13T12:52:16.882Z,5.70
2023-04-13T12:57:18.667Z,5.00
2023-04-13T13:02:24.085Z,6.00
2023-04-13T13:07:27.185Z,8.00
2023-04-13T13:12:30.242Z,7.80
2023-04-13T13:17:31.951Z,7.00
2023-04-13T13:22:34.578Z,8.00
2023-04-13T13:32:43.632Z,7.70
2023-04-13T13:37:45.357Z,6.40
2023-04-13T13:42:51.838Z,8.90
2023-04-13T13:47:58.320Z,8.60
2023-04-13T13:53:09.138Z,9.50
2023-04-13T13:58:14.933Z,9.60
2023-04-13T14:03:16.814Z,9.40
2023-04-13T14:08:18.733Z,11.10
2023-04-13T14:13:20.460Z,9.80
2023-04-13T14:18:23.901Z,10.10
2023-04-13T14:23:25.714Z,9.40
2023-04-13T14:28:27.538Z,8.60
2023-04-13T14:33:29.352Z,8.50
2023-04-13T14:38:31.009Z,8.00
2023-04-13T14:43:32.707Z,8.30
2023-04-13T14:48:34.571Z,8.60
2023-04-13T14:53:36.354Z,9.20
2023-04-13T14:58:37.973Z,8.80
2023-04-13T15:03:39.700Z,8.50
2023-04-13T15:08:41.900Z,8.50
2023-04-13T15:13:43.580Z,9.60
2023-04-13T15:18:45.272Z,8.90
2023-04-13T15:23:47.403Z,10.00
2023-04-13T15:28:49.304Z,9.90
2023-04-13T15:33:51.864Z,10.40
2023-04-13T15:38:53.735Z,10.20
2023-04-13T15:43:56.528Z,10.30
2023-04-13T15:48:59.678Z,9.20
2023-04-13T15:54:01.679Z,9.00
2023-04-13T15:59:04.131Z,10.30
2023-04-13T16:04:09.006Z,12.00
2023-04-13T16:09:10.867Z,14.30
2023-04-13T16:14:12.612Z,13.80
2023-04-13T16:19:18.617Z,13.90
2023-04-13T16:24:21.082Z,15.10
2023-04-13T16:29:22.795Z,18.90
2023-04-13T16:34:26.563Z,17.10
2023-04-13T16:39:28.622Z,18.90
2023-04-13T16:44:30.480Z,14.40
2023-04-13T16:49:33.530Z,21.50
2023-04-13T16:54:35.174Z,15.60
2023-04-13T16:59:36.870Z,17.20
2023-04-13T17:04:38.637Z,17.10
2023-04-13T17:09:40.420Z,16.30
2023-04-13T17:14:43.281Z,14.70
2023-04-13T17:19:45.052Z,18.70
2023-04-13T17:24:46.968Z,17.30
2023-04-13T17:29:49.925Z,19.20
2023-04-13T17:34:51.919Z,18.80
2023-04-13T17:39:53.608Z,19.80
2023-04-13T17:44:57.425Z,22.20
2023-04-13T17:50:00.145Z,21.40
2023-04-13T17:55:02.039Z,23.20
2023-04-13T18:00:04.460Z,22.20
2023-04-13T18:05:08.568Z,24.00
2023-04-13T18:10:10.954Z,19.90
2023-04-13T18:15:14.007Z,20.00
2023-04-13T18:20:15.719Z,23.30
2023-04-13T18:25:17.504Z,21.60
2023-04-13T18:30:21.024Z,20.20
2023-04-13T18:35:22.702Z,21.60
2023-04-13T18:40:24.492Z,23.30
2023-04-13T18:45:26.176Z,21.20
2023-04-13T18:50:29.436Z,25.80
2023-04-13T18:55:31.356Z,26.70
2023-04-13T19:00:33.134Z,28.80
2023-04-13T19:05:35.589Z,26.90
2023-04-13T19:10:38.995Z,25.20
2023-04-13T19:15:40.773Z,23.90
2023-04-13T19:20:42.447Z,26.30
2023-04-13T19:25:45.427Z,35.60
2023-04-13T19:30:47.101Z,42.70
2023-04-13T19:35:48.838Z,36.50
2023-04-13T19:40:50.706Z,29.70
2023-04-13T19:45:54.852Z,27.90
2023-04-13T19:50:56.588Z,27.30
2023-04-13T19:55:58.277Z,30.20
2023-04-13T20:01:00.330Z,27.50
2023-04-13T20:06:03.001Z,27.80
2023-04-13T20:11:05.294Z,29.30
2023-04-13T20:16:07.831Z,30.00
2023-04-13T20:21:10.724Z,32.20
2023-04-13T20:26:12.456Z,33.80
2023-04-13T20:31:15.486Z,34.00
2023-04-13T20:36:18.222Z,31.90
2023-04-13T20:41:21.694Z,29.80
2023-04-13T20:46:25.298Z,31.30
2023-04-13T20:51:29.771Z,28.50
2023-04-13T20:56:31.819Z,30.50
2023-04-13T21:01:33.526Z,28.20
2023-04-13T21:06:35.223Z,27.20
2023-04-13T21:11:37.731Z,24.70
2023-04-13T21:16:39.515Z,21.10
2023-04-13T21:21:41.412Z,23.60
2023-04-13T21:26:43.189Z,25.20
2023-04-13T21:31:47.681Z,26.80
2023-04-13T21:36:51.641Z,25.90
2023-04-13T21:41:54.543Z,24.00
2023-04-13T21:46:57.598Z,27.40
2023-04-13T21:52:00.897Z,22.60
2023-04-13T21:57:02.628Z,20.90
2023-04-13T22:02:04.433Z,22.90
2023-04-13T22:07:06.500Z,24.70
2023-04-13T22:12:10.763Z,23.80
2023-04-13T22:17:14.567Z,23.80
2023-04-13T22:22:16.414Z,21.90
2023-04-13T22:27:18.163Z,20.50
2023-04-13T22:32:20.056Z,22.90
2023-04-13T22:37:21.876Z,21.80
2023-04-13T22:42:23.515Z,22.30
2023-04-13T22:47:25.397Z,21.50
2023-04-13T22:52:27.588Z,24.80
2023-04-13T22:57:29.343Z,21.40
2023-04-13T23:02:31.576Z,24.40
2023-04-13T23:07:34.148Z,23.60
2023-04-13T23:12:36.986Z,25.90
2023-04-13T23:17:41.343Z,26.30
2023-04-13T23:22:43.121Z,30.30
2023-04-13T23:27:44.887Z,30.20
2023-04-13T23:32:46.562Z,27.80
2023-04-13T23:37:48.300Z,29.60
2023-04-13T23:42:50.839Z,31.00
2023-04-13T23:47:54.557Z,28.50
2023-04-13T23:52:57.725Z,26.50
2023-04-13T23:57:59.425Z,25.60
